METAR Data
IDs: Format: Raw Decoded Include TAF

Data at: 2239 UTC 29 May 2020

METAR for:KDEH (Decorah Muni, IA, US)
Text:KDEH 292235Z AUTO 35011KT 10SM BKN055 18/09 A3010 RMK AO2
Temperature: 18.0°C ( 64°F)
Dewpoint: 9.0°C ( 48°F) [RH = 56%]
Pressure (altimeter):30.10 inches Hg (1019.4 mb)
Winds:from the N (350 degrees) at 13 MPH (11 knots; 5.7 m/s)
Visibility:10 or more sm (16+ km)
Ceiling:5500 feet AGL
Clouds: broken clouds at 5500 feet AGL
QC Flag:automated observation with no human augmentation